• Join FlightAware (Why Join?)
  • Login
  • US Flag 
05:38AM EDT


 

Airport Tracker/Info


-or-


 

Live Flight TrackerFlight Track Log ✈ RPA3242 ✈ 17-May-2013 ✈ KDTW - KPHL

Flight Track Log - Related Links

Times and Time Zones

All times are in EDT time to prevent confusion due to time zone crossing. See the RPA3242 flight status page for this flight to view local times or setup timezone preferences in your user account.

Time Position Orientation Groundspeed Altitude Reporting Facility
EDT Latitude Longitude Course Direction KTS MPH feet Rate Location/Type
06:23PM 42.2356 -83.3289 90° East 147 169 1,600  Level Cleveland Center
06:24PM 42.2681 -83.2825 47° Northeast 215 247 3,300 2,040 Climbing Cleveland Center
06:25PM 42.2167 -82.9354 90° East  Level FlightAware Approximate
06:25PM 42.3053 -83.2083 56° Northeast 259 298 5,900  Level Cleveland Center
06:26PM 42.2167 -82.7956 90° East  Level FlightAware Approximate
06:26PM 42.2653 -83.1253 123° Southeast 285 328 8,600  Level Cleveland Center
06:27PM 42.2167 -82.6558 90° East  Level FlightAware Approximate
06:27PM 42.2136 -83.0167 123° Southeast 319 367 10,400  Level Cleveland Center
06:28PM 42.2167 -82.5160 90° East  Level FlightAware Approximate
06:28PM 42.2158 -82.8961 89° East 296 341 12,500  Level Cleveland Center
06:29PM 42.2186 -82.7672 88° East 318 366 15,000 2,520 Climbing Cleveland Center
06:30PM 42.2208 -82.6328 89° East 336 387 17,600 2,220 Climbing Cleveland Center
06:31PM 42.2233 -82.4953 89° East 355 409 19,500 1,680 Climbing Cleveland Center
06:32PM 42.2172 -82.3522 93° East 368 423 21,000 720 Climbing Cleveland Center
06:33PM 42.2069 -82.2061 95° East 387 445 21,000 180 Level Cleveland Center
06:34PM 42.1964 -82.0603 96° East 387 445 21,400 1,080 Climbing Cleveland Center
06:35PM 42.1689 -81.9167 104° East 387 445 23,200 1,800 Climbing Cleveland Center
06:36PM 42.0847 -81.8142 138° Southeast 382 440 25,000 1,740 Climbing Cleveland Center
06:37PM 41.9981 -81.7175 140° Southeast 399 459 26,700 1,500 Climbing Cleveland Center
06:38PM 41.9094 -81.6128 139° Southeast 415 478 28,100 1,260 Climbing Cleveland Center
06:39PM 41.8186 -81.5108 140° Southeast 430 495 29,300 1,200 Climbing Cleveland Center
06:40PM 41.7278 -81.4039 139° Southeast 430 495 30,500 1,140 Climbing Cleveland Center
06:41PM 41.6367 -81.2972 139° Southeast 430 495 31,700 900 Climbing Cleveland Center
06:42PM 41.5517 -81.2019 140° Southeast 435 501 32,400 600 Climbing Cleveland Center
06:43PM 41.4606 -81.0875 137° Southeast 446 513 33,000 300 Climbing Cleveland Center
06:44PM 41.3756 -80.9678 133° Southeast 446 513 33,000  Level Cleveland Center
06:45PM 41.2883 -80.8456 134° Southeast 451 519 33,000  Level Cleveland Center
06:46PM 41.1947 -80.7183 134° Southeast 451 519 33,000  Level Cleveland Center
06:47PM 41.1178 -80.6081 133° Southeast 451 519 33,000  Level Cleveland Center
06:48PM 41.0303 -80.4894 134° Southeast 446 513 33,000  Level Cleveland Center
06:49PM 40.9425 -80.3686 134° Southeast 446 513 33,000  Level Cleveland Center
06:50PM 40.8547 -80.2536 135° Southeast 451 519 33,000  Level Cleveland Center
06:51PM 40.7833 -80.0950 121° Southeast 451 519 33,000  Level Cleveland Center
06:52PM 40.7325 -79.9583 116° Southeast 457 526 33,000  Level Cleveland Center
06:53PM 40.6794 -79.8083 115° Southeast 452 520 33,000  Level Cleveland Center
06:54PM 40.6242 -79.6558 115° Southeast 452 520 33,000  Level Cleveland Center
06:55PM 40.5686 -79.5061 116° Southeast 447 514 33,000  Level Cleveland Center
06:56PM 40.5131 -79.3569 116° Southeast 447 514 33,000  Level Cleveland Center
06:57PM 40.4733 -79.1831 107° East 447 514 33,000  Level Cleveland Center
06:58PM 40.4544 -79.0142 98° East 447 514 33,000  Level Cleveland Center
06:59PM 40.4314 -78.8511 100° East 453 521 33,000  Level Cleveland Center
07:00PM 40.4119 -78.6853 99° East 453 521 33,000 -780 Level Cleveland Center
07:02PM 40.3714 -78.4000 100° East 464 534 31,000 -1,560 Descending New York Center
07:03PM 40.3486 -78.2367 100° East 458 527 28,700 -2,340 Descending New York Center
07:04PM 40.3275 -78.0736 100° East 452 520 26,300 -1,860 Descending New York Center
07:05PM 40.3100 -77.9164 98° East 447 514 25,000 -720 Descending New York Center
07:06PM 40.3008 -77.7578 94° East 442 509 25,000 -960 Level New York Center
07:07PM 40.2847 -77.6036 98° East 442 509 23,200 -2,040 Descending New York Center
07:08PM 40.2675 -77.4686 99° East 419 482 21,000 -2,100 Descending New York Center
07:09PM 40.2469 -77.3142 100° East 397 457 19,000 -1,500 Descending New York Center
07:10PM 40.2328 -77.1906 98° East 392 451 18,000 -540 Descending New York Center
07:11PM 40.2139 -77.0392 99° East 387 445 18,000  Level New York Center
07:12PM 40.1975 -76.9128 100° East 387 445 18,000 -540 Level New York Center
07:13PM 40.1814 -76.7781 99° East 387 445 17,000 -1,080 Descending New York Center
07:14PM 40.1631 -76.6461 100° East 376 433 15,900 -1,260 Descending New York Center
07:15PM 40.1475 -76.4953 98° East 376 433 14,600 -1,440 Descending New York Center
07:16PM 40.1311 -76.3636 99° East 370 426 13,100 -780 Descending New York Center
07:17PM 40.1161 -76.2347 99° East 370 426 13,100 -840 Level New York Center
07:18PM 40.1053 -76.1119 97° East 370 426 11,500 -1,500 Descending New York Center
07:19PM 40.0964 -75.9783 95° East 354 407 10,100 -1,620 Descending New York Center
07:20PM 40.0906 -75.8772 94° East 325 374 8,400 -1,020 Descending New York Center
07:21PM 40.0853 -75.7550 93° East 313 360 8,100 -240 Descending New York Center
07:22PM 40.1181 -75.6675 64° Northeast 292 336 8,000  Descending New York Center
07:23PM 40.1597 -75.5672 61° Northeast 281 323 8,100  Climbing New York Center
07:24PM 40.1697 -75.4756 82° East 276 318 8,100  Level New York Center
07:25PM 40.1700 -75.3617 90° East 276 318 8,100 -360 Level New York Center
07:26PM 40.1697 -75.2664 90° East 269 310 7,500 -540 Descending New York Center
07:27PM 40.1431 -75.1969 117° Southeast 229 264 7,100 -600 Descending New York Center
07:28PM 40.0739 -75.2033 184° South 200 230 6,300 -660 Descending New York Center
07:29PM 40.0333 -75.2000 176° South 239 275 6,000 -180 Descending Philadelphia TRACON
07:30PM 39.9833 -75.1500 143° Southeast 234 269 6,000  Level Philadelphia TRACON
07:31PM 40.0000 -75.0667 75° East 218 251 6,000  Level Philadelphia TRACON
07:32PM 40.0167 -75.0000 72° East 215 247 6,000 -420 Level Philadelphia TRACON
07:33PM 40.0167 -74.9167 90° East 214 246 5,200 -960 Descending Philadelphia TRACON
07:34PM 39.9833 -74.9167 180° South 203 234 4,100 -600 Descending Philadelphia TRACON
07:35PM 39.9333 -74.9500 207° Southwest 180 207 4,000 -420 Descending Philadelphia TRACON
07:36PM 39.9167 -75.0167 252° West 182 209 3,300 -720 Descending Philadelphia TRACON